Time;durP1;ratioP1;P1;durP2;ratioP2;P2;SDS_P1;SDS_P2;PMS_P1;PMS_P2;Temp;Humidity;BMP_temperature;BMP_pressure;BME280_temperature;BME280_humidity;BME280_pressure;Samples;Min_cycle;Max_cycle;Signal;HPM_P1;HPM_P2
2023/07/06 00:02:03;;;;;;;9.55;4.07;;;;;;;;;;5106222;27;20150;-62
2023/07/06 00:04:29;;;;;;;7.10;3.70;;;;;;;;;;5098827;27;20051;-62
2023/07/06 00:06:56;;;;;;;11.57;3.88;;;;;;;;;;5082285;28;20056;-62
2023/07/06 00:09:22;;;;;;;12.40;4.70;;;;;;;;;;5094954;27;20109;-61
2023/07/06 00:11:49;;;;;;;9.15;3.88;;;;;;;;;;5107779;27;20051;-62
2023/07/06 00:14:15;;;;;;;6.78;3.45;;;;;;;;;;5090656;27;20518;-62
2023/07/06 00:16:45;;;;;;;6.90;3.83;;;;;;;;;;5084058;27;20052;-61
2023/07/06 00:19:12;;;;;;;7.97;3.63;;;;;;;;;;5083737;28;20071;-61
2023/07/06 00:21:38;;;;;;;10.57;3.85;;;;;;;;;;5102311;27;20055;-58
2023/07/06 00:24:05;;;;;;;8.98;3.50;;;;;;;;;;5110909;27;20525;-61
2023/07/06 00:26:32;;;;;;;10.80;4.30;;;;;;;;;;5096479;27;20055;-60
2023/07/06 00:28:58;;;;;;;5.78;3.30;;;;;;;;;;5086125;27;20153;-58
2023/07/06 00:31:50;;;;;;;10.55;3.83;;;;;;;;;;5098272;27;20071;-60
2023/07/06 00:34:18;;;;;;;13.65;4.10;;;;;;;;;;5093301;27;20044;-57
2023/07/06 00:36:46;;;;;;;8.82;3.67;;;;;;;;;;5101390;27;20123;-60
2023/07/06 00:39:13;;;;;;;14.00;4.35;;;;;;;;;;5086569;27;20389;-62
2023/07/06 00:41:40;;;;;;;12.98;3.90;;;;;;;;;;5102819;27;20503;-58
2023/07/06 00:44:26;;;;;;;13.98;4.82;;;;;;;;;;5092108;27;20056;-60
2023/07/06 00:46:53;;;;;;;7.60;3.30;;;;;;;;;;5091035;27;20053;-62
2023/07/06 00:49:19;;;;;;;15.60;4.30;;;;;;;;;;5088786;27;20058;-59
2023/07/06 00:51:45;;;;;;;8.77;4.35;;;;;;;;;;5090299;27;20052;-62
2023/07/06 00:54:16;;;;;;;6.75;3.28;;;;;;;;;;5112007;27;20203;-61
2023/07/06 00:56:45;;;;;;;9.93;3.97;;;;;;;;;;5095182;27;20056;-62
2023/07/06 00:59:13;;;;;;;6.10;3.47;;;;;;;;;;5102715;27;20061;-61
2023/07/06 01:01:41;;;;;;;9.30;3.95;;;;;;;;;;5100680;27;20047;-61
2023/07/06 01:04:11;;;;;;;5.90;3.70;;;;;;;;;;5097075;27;20579;-60
2023/07/06 01:06:46;;;;;;;7.03;3.95;;;;;;;;;;5113131;27;20049;-61
2023/07/06 01:09:12;;;;;;;7.60;3.78;;;;;;;;;;5118733;27;20055;-62
2023/07/06 01:11:41;;;;;;;10.52;3.88;;;;;;;;;;5095639;27;20140;-65
2023/07/06 01:14:12;;;;;;;9.02;4.18;;;;;;;;;;5101113;27;20545;-61
2023/07/06 01:16:38;;;;;;;9.40;3.55;;;;;;;;;;5097711;27;20102;-61
2023/07/06 01:19:20;;;;;;;8.27;3.20;;;;;;;;;;5090669;27;20056;-60
2023/07/06 01:21:57;;;;;;;14.65;4.40;;;;;;;;;;5098833;27;20900;-60
2023/07/06 01:24:33;;;;;;;8.70;3.85;;;;;;;;;;5108796;27;20483;-62
2023/07/06 01:27:03;;;;;;;10.98;3.70;;;;;;;;;;5107995;27;20063;-62
2023/07/06 01:29:48;;;;;;;8.32;4.07;;;;;;;;;;5084876;28;20056;-63
2023/07/06 01:32:17;;;;;;;10.15;3.45;;;;;;;;;;5090020;28;20756;-62
2023/07/06 01:34:53;;;;;;;11.43;4.10;;;;;;;;;;5100155;27;20090;-62
2023/07/06 01:37:24;;;;;;;6.60;3.45;;;;;;;;;;5087056;27;20106;-62
2023/07/06 01:39:53;;;;;;;9.38;3.80;;;;;;;;;;5096848;27;20478;-62
2023/07/06 01:42:25;;;;;;;5.32;3.45;;;;;;;;;;5108403;27;20507;-58
2023/07/06 01:44:52;;;;;;;7.63;3.60;;;;;;;;;;5095007;27;20093;-64
2023/07/06 01:47:19;;;;;;;9.73;4.25;;;;;;;;;;5103329;27;20079;-62
2023/07/06 01:49:47;;;;;;;6.45;3.50;;;;;;;;;;5099321;27;20529;-62
2023/07/06 01:52:19;;;;;;;7.25;3.80;;;;;;;;;;5102581;27;20133;-62
2023/07/06 01:54:54;;;;;;;12.63;4.43;;;;;;;;;;5108152;27;20044;-62
2023/07/06 01:57:25;;;;;;;7.95;4.05;;;;;;;;;;5098583;27;20056;-61
2023/07/06 01:59:53;;;;;;;12.60;6.03;;;;;;;;;;5095636;27;20056;-61
2023/07/06 02:02:20;;;;;;;8.27;3.78;;;;;;;;;;5094685;27;20058;-62
2023/07/06 02:04:49;;;;;;;7.63;4.18;;;;;;;;;;5104190;27;20054;-58
2023/07/06 02:07:16;;;;;;;5.65;3.92;;;;;;;;;;5097090;27;20059;-62
2023/07/06 02:09:43;;;;;;;8.48;4.45;;;;;;;;;;5091301;27;20130;-62
2023/07/06 02:12:12;;;;;;;15.45;5.07;;;;;;;;;;5101955;27;20056;-62
2023/07/06 02:14:40;;;;;;;10.52;4.05;;;;;;;;;;5099473;27;20052;-61
2023/07/06 02:17:07;;;;;;;9.20;4.03;;;;;;;;;;5101286;28;20055;-61
2023/07/06 02:19:35;;;;;;;5.30;3.70;;;;;;;;;;5091386;27;20063;-62
2023/07/06 02:22:05;;;;;;;10.10;4.55;;;;;;;;;;5100605;27;20052;-61
2023/07/06 02:24:32;;;;;;;7.88;3.92;;;;;;;;;;5106012;27;20059;-61
2023/07/06 02:26:58;;;;;;;10.90;4.05;;;;;;;;;;5104568;27;20056;-59
2023/07/06 02:29:25;;;;;;;9.80;4.85;;;;;;;;;;5103066;28;20044;-62
2023/07/06 02:31:53;;;;;;;11.43;4.60;;;;;;;;;;5102093;27;20934;-62
2023/07/06 02:34:24;;;;;;;12.18;4.57;;;;;;;;;;5089844;27;20044;-61
2023/07/06 02:36:51;;;;;;;9.32;3.95;;;;;;;;;;5091637;27;20087;-61
2023/07/06 02:39:20;;;;;;;10.68;4.30;;;;;;;;;;5085036;28;20060;-61
2023/07/06 02:41:46;;;;;;;10.57;4.18;;;;;;;;;;5099919;27;20044;-61
2023/07/06 02:44:13;;;;;;;9.50;4.75;;;;;;;;;;5099034;27;20167;-62
2023/07/06 02:46:39;;;;;;;12.85;4.68;;;;;;;;;;5088728;27;20060;-62
2023/07/06 02:49:06;;;;;;;6.50;4.03;;;;;;;;;;5084032;27;20079;-61
2023/07/06 02:51:35;;;;;;;9.82;4.22;;;;;;;;;;5089466;28;20083;-58
2023/07/06 02:54:02;;;;;;;11.88;4.85;;;;;;;;;;5117750;27;20193;-62
2023/07/06 02:56:28;;;;;;;8.82;4.45;;;;;;;;;;5100315;27;20059;-62
2023/07/06 02:58:55;;;;;;;11.05;4.95;;;;;;;;;;5093592;27;20076;-62
2023/07/06 03:01:21;;;;;;;9.55;3.83;;;;;;;;;;5085180;28;20098;-61
2023/07/06 03:03:51;;;;;;;10.52;3.95;;;;;;;;;;5090512;27;20626;-59
2023/07/06 03:06:18;;;;;;;8.98;3.92;;;;;;;;;;5102390;27;20051;-61
2023/07/06 03:08:46;;;;;;;9.00;4.03;;;;;;;;;;5096929;27;20052;-59
2023/07/06 03:11:14;;;;;;;10.98;4.15;;;;;;;;;;5082416;28;20118;-61
2023/07/06 03:13:40;;;;;;;10.68;4.65;;;;;;;;;;5098865;27;20056;-62
2023/07/06 03:16:08;;;;;;;12.73;4.32;;;;;;;;;;5101221;27;20048;-61
2023/07/06 03:18:36;;;;;;;9.07;4.55;;;;;;;;;;5097989;27;20059;-62
2023/07/06 03:21:02;;;;;;;7.97;3.78;;;;;;;;;;5092283;27;20048;-59
2023/07/06 03:23:29;;;;;;;11.48;4.20;;;;;;;;;;5084619;27;20156;-61
2023/07/06 03:25:55;;;;;;;9.88;4.65;;;;;;;;;;5099792;27;20055;-61
2023/07/06 03:28:23;;;;;;;7.75;3.83;;;;;;;;;;5103864;27;20078;-62
2023/07/06 03:30:54;;;;;;;10.25;3.78;;;;;;;;;;5094429;27;20056;-62
2023/07/06 03:33:20;;;;;;;11.30;4.28;;;;;;;;;;5096853;27;20087;-62
2023/07/06 03:35:47;;;;;;;11.13;5.00;;;;;;;;;;5092106;27;20059;-62
2023/07/06 03:38:13;;;;;;;11.18;3.92;;;;;;;;;;5096891;27;20500;-62
2023/07/06 03:40:40;;;;;;;9.30;4.28;;;;;;;;;;5095784;27;20481;-59
2023/07/06 03:43:06;;;;;;;9.48;4.60;;;;;;;;;;5104572;27;20047;-61
2023/07/06 03:45:33;;;;;;;12.93;4.78;;;;;;;;;;5109720;27;20052;-61
2023/07/06 03:48:00;;;;;;;7.47;3.53;;;;;;;;;;5091570;27;20059;-61
2023/07/06 03:50:27;;;;;;;6.80;3.67;;;;;;;;;;5090302;27;20584;-59
2023/07/06 03:52:53;;;;;;;10.15;4.22;;;;;;;;;;5097360;27;20174;-62
2023/07/06 03:55:24;;;;;;;11.40;4.20;;;;;;;;;;5087583;27;20080;-62
2023/07/06 03:57:51;;;;;;;10.45;4.00;;;;;;;;;;5085784;27;20655;-62
2023/07/06 04:00:30;;;;;;;7.97;4.22;;;;;;;;;;5086284;27;20632;-61
2023/07/06 04:02:57;;;;;;;9.23;3.83;;;;;;;;;;5083127;27;20052;-58
2023/07/06 04:05:31;;;;;;;8.93;4.60;;;;;;;;;;5084566;27;20080;-60
2023/07/06 04:08:03;;;;;;;12.52;3.92;;;;;;;;;;5102669;27;20060;-60
2023/07/06 04:10:31;;;;;;;13.23;4.25;;;;;;;;;;5099007;27;20048;-62
2023/07/06 04:12:57;;;;;;;9.45;3.70;;;;;;;;;;5085577;27;20063;-60
2023/07/06 04:15:24;;;;;;;12.70;4.80;;;;;;;;;;5092430;27;20094;-62
2023/07/06 04:17:52;;;;;;;12.63;4.90;;;;;;;;;;5091844;28;20564;-61
2023/07/06 04:20:19;;;;;;;8.18;3.97;;;;;;;;;;5116790;27;20067;-61
2023/07/06 04:22:47;;;;;;;12.13;4.07;;;;;;;;;;5095661;27;20086;-62
2023/07/06 04:25:18;;;;;;;12.00;4.32;;;;;;;;;;5099842;27;20056;-62
2023/07/06 04:27:44;;;;;;;9.95;4.32;;;;;;;;;;5101323;27;20048;-62
2023/07/06 04:30:11;;;;;;;8.18;4.28;;;;;;;;;;5090411;28;20063;-62
2023/07/06 04:32:38;;;;;;;15.65;5.03;;;;;;;;;;5099404;27;20052;-60
2023/07/06 04:35:06;;;;;;;13.55;4.80;;;;;;;;;;5103912;27;20052;-61
2023/07/06 04:37:33;;;;;;;14.50;5.03;;;;;;;;;;5101911;27;20086;-61
2023/07/06 04:40:01;;;;;;;9.95;4.43;;;;;;;;;;5090426;28;20056;-62
2023/07/06 04:42:28;;;;;;;12.25;4.93;;;;;;;;;;5100169;27;20571;-61
2023/07/06 04:44:54;;;;;;;12.88;5.10;;;;;;;;;;5093266;27;20565;-62
2023/07/06 04:47:23;;;;;;;17.15;4.53;;;;;;;;;;5114654;27;20043;-62
2023/07/06 04:49:50;;;;;;;10.75;5.88;;;;;;;;;;5109799;27;20103;-61
2023/07/06 04:52:16;;;;;;;6.72;4.13;;;;;;;;;;5106360;27;20074;-62
2023/07/06 04:54:42;;;;;;;8.90;4.50;;;;;;;;;;5105154;27;20067;-61
2023/07/06 04:57:13;;;;;;;10.52;5.07;;;;;;;;;;5090523;27;20065;-62
2023/07/06 04:59:40;;;;;;;17.85;4.68;;;;;;;;;;5095263;27;20081;-61
2023/07/06 05:02:07;;;;;;;12.93;5.00;;;;;;;;;;5092508;28;20051;-63
2023/07/06 05:04:33;;;;;;;7.78;4.10;;;;;;;;;;5090173;27;20139;-61
2023/07/06 05:07:00;;;;;;;10.70;4.32;;;;;;;;;;5101555;27;20048;-61
2023/07/06 05:09:28;;;;;;;13.38;4.57;;;;;;;;;;5101051;27;20152;-62
2023/07/06 05:11:54;;;;;;;10.52;4.63;;;;;;;;;;5100401;27;20492;-62
2023/07/06 05:14:21;;;;;;;11.32;5.95;;;;;;;;;;5102617;27;20052;-63
2023/07/06 05:16:47;;;;;;;14.65;5.68;;;;;;;;;;5098658;27;20049;-60
2023/07/06 05:19:15;;;;;;;12.80;4.57;;;;;;;;;;5093348;27;20052;-63
2023/07/06 05:21:42;;;;;;;14.68;5.15;;;;;;;;;;5098083;27;20051;-61
2023/07/06 05:24:08;;;;;;;12.02;5.40;;;;;;;;;;5109131;27;20060;-60
2023/07/06 05:26:35;;;;;;;11.70;5.13;;;;;;;;;;5094136;27;20463;-62
2023/07/06 05:29:01;;;;;;;8.02;4.75;;;;;;;;;;5092276;27;21493;-62
2023/07/06 05:31:28;;;;;;;14.70;5.88;;;;;;;;;;5097806;27;20427;-61
2023/07/06 05:33:54;;;;;;;9.50;4.93;;;;;;;;;;5098560;28;20150;-62
2023/07/06 05:36:20;;;;;;;11.10;4.90;;;;;;;;;;5111279;27;20148;-60
2023/07/06 05:38:47;;;;;;;8.38;4.90;;;;;;;;;;5093594;27;20052;-61
2023/07/06 05:41:13;;;;;;;17.83;5.82;;;;;;;;;;5104187;27;20056;-62
2023/07/06 05:43:40;;;;;;;14.05;5.63;;;;;;;;;;5094829;27;20102;-62
2023/07/06 05:46:06;;;;;;;16.33;5.40;;;;;;;;;;5104660;27;20518;-61
2023/07/06 05:48:33;;;;;;;10.32;5.32;;;;;;;;;;5090438;27;20049;-61
2023/07/06 05:51:00;;;;;;;17.25;6.50;;;;;;;;;;5093833;27;20058;-63
2023/07/06 05:53:27;;;;;;;17.38;5.93;;;;;;;;;;5096234;27;20045;-63
2023/07/06 05:55:54;;;;;;;11.40;4.97;;;;;;;;;;5119227;27;20055;-61
2023/07/06 05:58:22;;;;;;;9.25;5.47;;;;;;;;;;5101580;28;20084;-63
2023/07/06 06:00:48;;;;;;;12.07;5.03;;;;;;;;;;5087574;27;20079;-61
2023/07/06 06:03:16;;;;;;;18.13;5.88;;;;;;;;;;5098966;27;20582;-62
2023/07/06 06:05:42;;;;;;;14.27;6.28;;;;;;;;;;5100039;27;20456;-63
2023/07/06 06:08:09;;;;;;;15.50;5.78;;;;;;;;;;5087640;28;20540;-63
2023/07/06 06:10:35;;;;;;;12.82;5.50;;;;;;;;;;5117764;27;20120;-62
2023/07/06 06:13:02;;;;;;;15.63;5.43;;;;;;;;;;5089464;27;20515;-61
2023/07/06 06:15:29;;;;;;;16.00;5.82;;;;;;;;;;5089377;28;20500;-63
2023/07/06 06:17:55;;;;;;;13.43;5.40;;;;;;;;;;5089293;28;20080;-63
2023/07/06 06:20:22;;;;;;;12.80;5.80;;;;;;;;;;5086760;28;20534;-62
2023/07/06 06:22:49;;;;;;;16.33;5.85;;;;;;;;;;5086914;28;20079;-61
2023/07/06 06:25:15;;;;;;;15.75;6.75;;;;;;;;;;5103595;27;20473;-62
2023/07/06 06:27:43;;;;;;;17.10;6.47;;;;;;;;;;5085364;27;20055;-62
2023/07/06 06:30:09;;;;;;;15.15;6.72;;;;;;;;;;5101600;28;20056;-65
2023/07/06 06:32:36;;;;;;;18.23;7.50;;;;;;;;;;5090424;27;20059;-61
2023/07/06 06:35:03;;;;;;;13.85;6.60;;;;;;;;;;5098591;27;20135;-62
2023/07/06 06:37:29;;;;;;;18.40;6.82;;;;;;;;;;5089676;27;20152;-63
2023/07/06 06:39:59;;;;;;;21.38;7.38;;;;;;;;;;5102925;27;20056;-63
2023/07/06 06:42:28;;;;;;;16.27;7.40;;;;;;;;;;5090798;27;20115;-63
2023/07/06 06:44:57;;;;;;;17.60;7.70;;;;;;;;;;5086137;27;20059;-62
2023/07/06 06:47:24;;;;;;;26.45;7.78;;;;;;;;;;5083904;27;20122;-62
2023/07/06 06:49:50;;;;;;;21.80;8.13;;;;;;;;;;5088081;28;20059;-62
2023/07/06 06:52:18;;;;;;;19.98;8.68;;;;;;;;;;5096656;27;20084;-60
2023/07/06 06:54:45;;;;;;;21.73;8.90;;;;;;;;;;5093403;27;20052;-62
2023/07/06 06:57:14;;;;;;;18.35;9.07;;;;;;;;;;5082501;28;20056;-62
2023/07/06 06:59:40;;;;;;;16.25;8.00;;;;;;;;;;5094969;28;20135;-62
2023/07/06 07:02:07;;;;;;;25.08;9.35;;;;;;;;;;5098286;27;20049;-61
2023/07/06 07:04:34;;;;;;;20.92;8.85;;;;;;;;;;5083314;28;20497;-61
2023/07/06 07:07:03;;;;;;;18.60;9.23;;;;;;;;;;5104783;27;20571;-61
2023/07/06 07:09:30;;;;;;;37.42;10.52;;;;;;;;;;5095694;27;20059;-63
2023/07/06 07:11:57;;;;;;;20.60;9.70;;;;;;;;;;5083923;28;20703;-61
2023/07/06 07:14:23;;;;;;;24.88;9.43;;;;;;;;;;5087459;28;20049;-62
2023/07/06 07:16:50;;;;;;;24.55;10.32;;;;;;;;;;5094226;28;20051;-64
2023/07/06 07:19:19;;;;;;;16.75;8.13;;;;;;;;;;5089044;28;20489;-63
2023/07/06 07:21:45;;;;;;;20.27;10.18;;;;;;;;;;5086002;28;20056;-62
2023/07/06 07:24:12;;;;;;;18.63;10.80;;;;;;;;;;5094314;28;20135;-62
2023/07/06 07:26:39;;;;;;;14.18;8.45;;;;;;;;;;5091656;28;20111;-64
2023/07/06 07:29:06;;;;;;;15.25;9.52;;;;;;;;;;5095448;27;20063;-61
2023/07/06 07:31:32;;;;;;;16.55;9.25;;;;;;;;;;5099212;27;20585;-61
2023/07/06 07:33:59;;;;;;;13.77;8.77;;;;;;;;;;5086920;28;20408;-61
2023/07/06 07:36:25;;;;;;;21.08;9.95;;;;;;;;;;5082656;28;20049;-64
2023/07/06 07:38:56;;;;;;;18.95;9.02;;;;;;;;;;5087885;28;20171;-62
2023/07/06 07:41:24;;;;;;;14.50;8.48;;;;;;;;;;5087576;28;20667;-62
2023/07/06 07:43:50;;;;;;;13.27;9.45;;;;;;;;;;5086450;28;20058;-62
2023/07/06 07:46:19;;;;;;;18.35;8.75;;;;;;;;;;5089522;28;20148;-61
2023/07/06 07:48:46;;;;;;;17.67;10.10;;;;;;;;;;5087370;28;20056;-63
2023/07/06 07:51:14;;;;;;;19.58;10.48;;;;;;;;;;5082089;28;20052;-63
2023/07/06 07:53:41;;;;;;;14.20;8.63;;;;;;;;;;5082483;28;20052;-64
2023/07/06 07:56:08;;;;;;;18.08;8.98;;;;;;;;;;5082998;28;20134;-62
2023/07/06 07:58:36;;;;;;;14.00;8.45;;;;;;;;;;5095671;27;20064;-63
2023/07/06 08:01:05;;;;;;;11.38;7.63;;;;;;;;;;5086668;27;20054;-60
2023/07/06 08:03:32;;;;;;;11.95;8.27;;;;;;;;;;5081911;28;20056;-61
2023/07/06 08:06:02;;;;;;;11.23;6.90;;;;;;;;;;5086123;28;20072;-62
2023/07/06 08:08:31;;;;;;;12.70;6.90;;;;;;;;;;5095000;28;20109;-52
2023/07/06 08:11:00;;;;;;;20.75;7.15;;;;;;;;;;5087253;27;20055;-62
2023/07/06 08:13:26;;;;;;;11.55;6.65;;;;;;;;;;5081182;28;20147;-62
2023/07/06 08:15:53;;;;;;;11.40;6.15;;;;;;;;;;5094916;28;20553;-63
2023/07/06 08:18:20;;;;;;;10.00;6.35;;;;;;;;;;5094129;28;20084;-61
2023/07/06 08:20:47;;;;;;;9.43;4.88;;;;;;;;;;5098984;28;20072;-59
2023/07/06 08:23:34;;;;;;;9.93;4.70;;;;;;;;;;5095023;27;20416;-65
2023/07/06 08:26:04;;;;;;;11.68;4.95;;;;;;;;;;5092686;27;20084;-65
2023/07/06 08:28:31;;;;;;;7.60;4.57;;;;;;;;;;5082573;28;20056;-63
2023/07/06 08:31:03;;;;;;;9.63;4.90;;;;;;;;;;5090904;28;20055;-64
2023/07/06 08:33:32;;;;;;;7.93;4.28;;;;;;;;;;5097292;28;20048;-63
2023/07/06 08:35:59;;;;;;;9.77;5.25;;;;;;;;;;5085066;28;20063;-61
2023/07/06 08:38:25;;;;;;;11.85;4.57;;;;;;;;;;5094155;27;20140;-63
2023/07/06 08:40:52;;;;;;;11.25;5.00;;;;;;;;;;5083062;28;20044;-63
2023/07/06 08:43:21;;;;;;;6.43;4.55;;;;;;;;;;5082401;28;20080;-63
2023/07/06 08:45:49;;;;;;;7.43;5.65;;;;;;;;;;5097182;27;20048;-61
2023/07/06 08:48:17;;;;;;;8.25;4.15;;;;;;;;;;5081608;28;20059;-62
2023/07/06 08:50:48;;;;;;;8.27;4.68;;;;;;;;;;5082456;28;20573;-63
2023/07/06 08:53:15;;;;;;;10.25;4.45;;;;;;;;;;5083172;28;20519;-61
2023/07/06 08:55:42;;;;;;;7.38;4.25;;;;;;;;;;5082323;27;20481;-64
2023/07/06 08:58:12;;;;;;;7.63;4.38;;;;;;;;;;5089765;28;20062;-64
2023/07/06 09:00:38;;;;;;;9.55;4.57;;;;;;;;;;5101919;28;20087;-58
2023/07/06 09:03:06;;;;;;;9.35;4.18;;;;;;;;;;5091021;27;20052;-62
2023/07/06 09:05:35;;;;;;;7.93;4.60;;;;;;;;;;5085756;28;20060;-62
2023/07/06 09:08:01;;;;;;;5.65;3.75;;;;;;;;;;5082550;28;20582;-64
2023/07/06 09:10:28;;;;;;;6.35;4.15;;;;;;;;;;5082297;28;20789;-64
2023/07/06 09:12:56;;;;;;;5.07;3.55;;;;;;;;;;5090124;28;20601;-64
2023/07/06 09:15:27;;;;;;;6.53;3.28;;;;;;;;;;5087576;28;20052;-62
2023/07/06 09:17:56;;;;;;;10.50;3.95;;;;;;;;;;5085065;28;20060;-62
2023/07/06 09:20:25;;;;;;;7.30;3.67;;;;;;;;;;5091375;28;20048;-62
2023/07/06 09:22:51;;;;;;;7.60;3.78;;;;;;;;;;5086067;28;20057;-63
2023/07/06 09:25:20;;;;;;;10.75;3.53;;;;;;;;;;5105905;28;20351;-62
2023/07/06 09:27:48;;;;;;;4.05;3.00;;;;;;;;;;5094715;27;20052;-63
2023/07/06 09:30:23;;;;;;;6.18;3.55;;;;;;;;;;5085423;28;20087;-63
2023/07/06 09:32:53;;;;;;;14.38;4.38;;;;;;;;;;5085382;28;20061;-61
2023/07/06 09:35:22;;;;;;;8.57;3.83;;;;;;;;;;5088740;27;20061;-60
2023/07/06 09:37:51;;;;;;;9.25;3.80;;;;;;;;;;5085279;28;20151;-63
2023/07/06 09:40:18;;;;;;;11.02;4.68;;;;;;;;;;5089277;28;20179;-62
2023/07/06 09:42:49;;;;;;;7.97;3.50;;;;;;;;;;5091886;28;20052;-63
2023/07/06 09:45:19;;;;;;;5.95;3.85;;;;;;;;;;5085209;28;20558;-62
2023/07/06 09:47:48;;;;;;;6.93;3.03;;;;;;;;;;5089143;28;20040;-62
2023/07/06 09:50:18;;;;;;;7.10;2.53;;;;;;;;;;5099227;28;20059;-64
2023/07/06 09:52:45;;;;;;;4.35;2.53;;;;;;;;;;5093702;28;20060;-64
2023/07/06 09:55:19;;;;;;;6.90;2.85;;;;;;;;;;5105385;27;20581;-64
2023/07/06 09:57:49;;;;;;;4.88;2.28;;;;;;;;;;5099138;27;20052;-64
2023/07/06 10:00:17;;;;;;;5.38;2.35;;;;;;;;;;5083574;28;20103;-64
2023/07/06 10:02:59;;;;;;;5.25;2.60;;;;;;;;;;5087845;28;20056;-63
2023/07/06 10:05:26;;;;;;;5.38;2.63;;;;;;;;;;5093372;27;20084;-63
2023/07/06 10:07:56;;;;;;;5.47;3.65;;;;;;;;;;5101488;27;20536;-62
2023/07/06 10:10:33;;;;;;;6.70;2.70;;;;;;;;;;5093887;28;20052;-61
2023/07/06 10:13:03;;;;;;;9.32;2.83;;;;;;;;;;5091989;28;20354;-64
2023/07/06 10:15:29;;;;;;;6.22;2.85;;;;;;;;;;5088219;27;20048;-62
2023/07/06 10:18:03;;;;;;;9.38;2.85;;;;;;;;;;5086191;27;20142;-62
2023/07/06 10:20:32;;;;;;;6.15;3.40;;;;;;;;;;5084909;28;20520;-63
2023/07/06 10:23:14;;;;;;;6.00;3.08;;;;;;;;;;5083807;28;20053;-63
2023/07/06 10:25:54;;;;;;;10.18;3.05;;;;;;;;;;5087681;28;20143;-63
2023/07/06 10:28:28;;;;;;;8.18;3.72;;;;;;;;;;5084174;28;20052;-63
2023/07/06 10:30:56;;;;;;;5.35;3.55;;;;;;;;;;5083849;28;20597;-62
2023/07/06 10:33:25;;;;;;;8.70;3.25;;;;;;;;;;5084347;28;20559;-61
2023/07/06 10:35:52;;;;;;;6.93;3.35;;;;;;;;;;5084529;28;20674;-64
2023/07/06 10:38:19;;;;;;;7.82;4.10;;;;;;;;;;5087433;28;20058;-63
2023/07/06 10:40:50;;;;;;;5.38;3.47;;;;;;;;;;5088642;28;20139;-63
2023/07/06 10:43:16;;;;;;;10.35;3.67;;;;;;;;;;5083610;28;20976;-64
2023/07/06 10:45:48;;;;;;;5.10;3.47;;;;;;;;;;5086756;28;20064;-62
2023/07/06 10:48:14;;;;;;;6.63;3.65;;;;;;;;;;5083806;28;20484;-63
2023/07/06 10:50:49;;;;;;;9.63;3.67;;;;;;;;;;5089634;28;20056;-64
2023/07/06 10:53:26;;;;;;;10.05;4.20;;;;;;;;;;5099499;27;20060;-65
2023/07/06 10:56:03;;;;;;;9.57;4.38;;;;;;;;;;5084281;28;20110;-63
2023/07/06 10:58:31;;;;;;;10.07;4.78;;;;;;;;;;5090800;28;20094;-62
2023/07/06 11:00:58;;;;;;;12.63;4.90;;;;;;;;;;5100509;28;20056;-62
2023/07/06 11:03:27;;;;;;;9.30;5.28;;;;;;;;;;5091795;27;20059;-60
2023/07/06 11:05:53;;;;;;;7.90;4.03;;;;;;;;;;5085034;28;20072;-65
2023/07/06 11:08:40;;;;;;;9.60;4.43;;;;;;;;;;5086735;28;20053;-62
2023/07/06 11:11:06;;;;;;;;;;;;;;;;;;5088925;28;20059;-63
2023/07/06 11:13:47;;;;;;;5.45;3.28;;;;;;;;;;5082517;28;43508;-64
2023/07/06 11:16:20;;;;;;;8.32;4.28;;;;;;;;;;5083119;27;20094;-63
2023/07/06 11:18:48;;;;;;;7.03;3.38;;;;;;;;;;5097220;28;20500;-64
2023/07/06 11:21:33;;;;;;;11.02;4.55;;;;;;;;;;5103740;27;20147;-63
2023/07/06 11:24:02;;;;;;;5.57;3.55;;;;;;;;;;5102253;28;20118;-62
2023/07/06 11:26:39;;;;;;;7.60;4.05;;;;;;;;;;5095526;28;20060;-63
2023/07/06 11:29:10;;;;;;;7.85;3.97;;;;;;;;;;5086394;27;20051;-63
2023/07/06 11:31:36;;;;;;;7.75;3.50;;;;;;;;;;5084009;28;20527;-64
2023/07/06 11:34:06;;;;;;;6.63;3.40;;;;;;;;;;5082267;28;20052;-62
2023/07/06 11:36:39;;;;;;;7.35;3.80;;;;;;;;;;5083437;28;20052;-62
2023/07/06 11:39:20;;;;;;;8.60;4.28;;;;;;;;;;5089185;28;20056;-63
2023/07/06 11:41:53;;;;;;;7.57;3.35;;;;;;;;;;5089482;28;20049;-63
2023/07/06 11:44:26;;;;;;;8.13;3.50;;;;;;;;;;5083438;28;20063;-65
2023/07/06 11:47:02;;;;;;;7.18;2.78;;;;;;;;;;5083634;28;20052;-63
2023/07/06 11:49:40;;;;;;;5.40;2.85;;;;;;;;;;5083758;28;20055;-62
2023/07/06 11:52:10;;;;;;;5.93;2.33;;;;;;;;;;5091553;28;20508;-64
2023/07/06 11:54:43;;;;;;;2.97;1.73;;;;;;;;;;5103357;28;20052;-64
2023/07/06 11:57:28;;;;;;;1.95;1.15;;;;;;;;;;5086358;28;20553;-63
2023/07/06 12:00:22;;;;;;;3.08;1.48;;;;;;;;;;5098543;27;20052;-64
2023/07/06 12:02:58;;;;;;;1.92;1.50;;;;;;;;;;5083696;28;20492;-63
2023/07/06 12:05:38;;;;;;;1.80;1.20;;;;;;;;;;5083294;28;20565;-65
2023/07/06 12:08:19;;;;;;;4.25;1.65;;;;;;;;;;5081881;28;20518;-63
2023/07/06 12:10:48;;;;;;;2.65;1.13;;;;;;;;;;5081231;28;20051;-64
2023/07/06 12:13:17;;;;;;;3.97;2.00;;;;;;;;;;5084643;28;20060;-62
2023/07/06 12:15:47;;;;;;;8.57;1.98;;;;;;;;;;5095002;28;20663;-64
2023/07/06 12:18:14;;;;;;;3.63;2.05;;;;;;;;;;5082950;27;20143;-64
2023/07/06 12:20:42;;;;;;;3.45;1.30;;;;;;;;;;5085963;28;20760;-64
2023/07/06 12:23:10;;;;;;;2.20;1.27;;;;;;;;;;5068552;27;20052;-64
2023/07/06 12:25:39;;;;;;;6.60;1.45;;;;;;;;;;5096237;27;20580;-63
2023/07/06 12:28:09;;;;;;;3.35;1.40;;;;;;;;;;5076251;28;20435;-61
2023/07/06 12:30:35;;;;;;;1.42;1.33;;;;;;;;;;5084786;27;20423;-63
2023/07/06 12:33:08;;;;;;;4.25;1.40;;;;;;;;;;5094852;27;20547;-63
2023/07/06 12:35:35;;;;;;;4.78;1.40;;;;;;;;;;5100922;27;20055;-63
2023/07/06 12:38:09;;;;;;;4.00;1.13;;;;;;;;;;5108918;27;20420;-61
2023/07/06 12:40:37;;;;;;;2.40;1.30;;;;;;;;;;5122885;27;20048;-63
2023/07/06 12:43:04;;;;;;;3.75;1.08;;;;;;;;;;5094745;27;20507;-64
2023/07/06 12:45:31;;;;;;;3.50;1.40;;;;;;;;;;5100579;27;20516;-64
2023/07/06 12:47:59;;;;;;;3.17;0.90;;;;;;;;;;5096902;27;20052;-64
2023/07/06 12:50:37;;;;;;;3.28;0.95;;;;;;;;;;5100510;27;20135;-62
2023/07/06 12:53:18;;;;;;;3.22;1.00;;;;;;;;;;5096629;27;20498;-62
2023/07/06 12:55:45;;;;;;;3.42;1.35;;;;;;;;;;5090009;28;20151;-64
2023/07/06 12:58:35;;;;;;;2.65;1.35;;;;;;;;;;5085604;27;20053;-64
2023/07/06 13:01:08;;;;;;;2.30;1.08;;;;;;;;;;5092206;27;20136;-62
2023/07/06 13:03:56;;;;;;;2.72;0.90;;;;;;;;;;5110507;27;20055;-63
2023/07/06 13:06:25;;;;;;;1.45;0.93;;;;;;;;;;5096131;27;20589;-64
2023/07/06 13:08:55;;;;;;;0.70;0.70;;;;;;;;;;5084944;27;21119;-63
2023/07/06 13:11:22;;;;;;;2.45;0.90;;;;;;;;;;5101558;27;20041;-62
2023/07/06 13:13:56;;;;;;;1.83;1.05;;;;;;;;;;5102429;27;20501;-65
2023/07/06 13:16:23;;;;;;;3.00;1.00;;;;;;;;;;5095946;27;20053;-63
2023/07/06 13:18:51;;;;;;;4.57;1.25;;;;;;;;;;5085698;27;20049;-63
2023/07/06 13:21:22;;;;;;;0.82;0.82;;;;;;;;;;5093333;28;20062;-64
2023/07/06 13:23:55;;;;;;;1.50;0.83;;;;;;;;;;5111213;27;20585;-65
2023/07/06 13:26:26;;;;;;;1.85;0.88;;;;;;;;;;5096593;27;20160;-64
2023/07/06 13:28:53;;;;;;;2.78;0.93;;;;;;;;;;5102991;27;20062;-64
2023/07/06 13:31:19;;;;;;;1.27;0.88;;;;;;;;;;5103174;27;20040;-65
2023/07/06 13:33:46;;;;;;;3.42;0.98;;;;;;;;;;5104713;27;20122;-64
2023/07/06 13:36:14;;;;;;;2.80;1.20;;;;;;;;;;5101384;27;20189;-64
2023/07/06 13:38:40;;;;;;;0.77;0.70;;;;;;;;;;5097836;27;20052;-64
2023/07/06 13:41:11;;;;;;;1.70;1.08;;;;;;;;;;5105208;27;20048;-63
2023/07/06 13:43:38;;;;;;;1.60;1.00;;;;;;;;;;5092274;27;20541;-66
2023/07/06 13:46:08;;;;;;;4.65;1.02;;;;;;;;;;5099172;27;20542;-65
2023/07/06 13:48:34;;;;;;;1.00;0.90;;;;;;;;;;5095158;27;20044;-65
2023/07/06 13:51:03;;;;;;;0.90;0.63;;;;;;;;;;5110585;27;20059;-62
2023/07/06 13:53:29;;;;;;;1.63;1.00;;;;;;;;;;5110516;27;20044;-65
2023/07/06 13:55:57;;;;;;;2.08;0.82;;;;;;;;;;5105920;28;20055;-66
2023/07/06 13:58:24;;;;;;;3.50;1.00;;;;;;;;;;5089824;27;20155;-64
2023/07/06 14:00:51;;;;;;;3.03;0.80;;;;;;;;;;5085016;27;20129;-64
2023/07/06 14:03:21;;;;;;;3.75;0.90;;;;;;;;;;5099183;27;20077;-63
2023/07/06 14:05:57;;;;;;;1.15;0.95;;;;;;;;;;5088773;27;20048;-62
2023/07/06 14:08:25;;;;;;;2.65;1.10;;;;;;;;;;5088578;27;20079;-65
2023/07/06 14:10:53;;;;;;;0.77;0.70;;;;;;;;;;5111728;27;20055;-65
2023/07/06 14:13:21;;;;;;;4.80;1.00;;;;;;;;;;5113874;27;20135;-64
2023/07/06 14:15:49;;;;;;;2.83;1.00;;;;;;;;;;5102625;27;20595;-65
2023/07/06 14:18:16;;;;;;;2.72;1.20;;;;;;;;;;5086761;28;20138;-63
2023/07/06 14:20:44;;;;;;;2.17;0.90;;;;;;;;;;5086455;27;20057;-66
2023/07/06 14:23:15;;;;;;;1.75;0.80;;;;;;;;;;5103272;27;20063;-63
2023/07/06 14:25:42;;;;;;;0.85;0.70;;;;;;;;;;5100776;27;20559;-62
2023/07/06 14:28:10;;;;;;;2.95;1.00;;;;;;;;;;5096767;27;20630;-63
2023/07/06 14:30:36;;;;;;;2.60;1.15;;;;;;;;;;5093051;27;20056;-65
2023/07/06 14:33:07;;;;;;;1.73;1.17;;;;;;;;;;5089373;27;20052;-65
2023/07/06 14:35:35;;;;;;;1.15;0.88;;;;;;;;;;5090772;27;20504;-63
2023/07/06 14:38:02;;;;;;;1.42;0.98;;;;;;;;;;5086671;27;20080;-64
2023/07/06 14:40:28;;;;;;;2.25;1.10;;;;;;;;;;5105566;27;20147;-65
2023/07/06 14:42:56;;;;;;;2.78;1.20;;;;;;;;;;5095521;27;20566;-66
2023/07/06 14:45:23;;;;;;;2.97;0.88;;;;;;;;;;5122020;27;20056;-65
2023/07/06 14:47:50;;;;;;;3.00;1.08;;;;;;;;;;5087831;27;20063;-65
2023/07/06 14:50:17;;;;;;;2.97;0.93;;;;;;;;;;5088519;27;20103;-64